Cortez Municipal Airport

Current Flights

Departures
Number Departure To Airline
 BAI771 06:00  Denver Boutique Air
 4B771 06:00  Denver Aviastar
 BAI777 15:25  Denver Boutique Air
 BAI771 06:00  Denver Boutique Air
 BAI777 15:25  Denver Boutique Air
 BAI771 06:00  Denver Boutique Air
 BAI776 17:05  Denver Boutique Air
Arrivals
Number Arrival From Airline
 4B778 NA  Denver Boutique Air
Info
Name: Cortez Municipal Airport
Identifier:  CEZ/KCEZ
Local Time:  20. Jun 00:55
City
Flights per Day
5 flights
Distance: 472km (293mi)
Punctuality
68% (1 flights per day delayed)
Delay Average: 6 minutes
Current Weather
 13 C (Humidity: 54%)
  8kt (14km/h / 9mph) from 60°
  16km (10 mi.)
 
 METAR KCEZ 200553Z AUTO 06008KT 10SM CLR 13/04 A3002 RMK AO2 SLP088 T01330039 10294 20133 51004

Current Delays

Departures
N/A
Arrivals
N/A

Destinations

Top Destinations
Airport Flights
per week
Seats
per week
  Denver (DEN) 28 - 4 0
  Phoenix (PHX) 10 - 1 0
  Grand Junction (GJT) 0 - 0 0
  San Francisco (SFO) 0 - 0 0
  Texarkana (TXK) 0 - 0 0
  Redding (RDD) 0 - 0 0
  San Diego (MYF) 0 - 0 0
  Mesa (MSC) 0 - 0 0

Airlines & Planes

Top Airlines
Airline Flights
per Day
Seats
per Day
Aviastar 2 -
Boutique Air 1 -
Redding Aero Enterprises 0 -
  Nolinor Aviation 0 -
NetJets 0 0
Jet Charter Inc ( Franklin Lakes Nj ) 0 -
Top Plane Types
Model Flights Seats
Pilatus PC-12 5.5/day - 0
Cirrus SR22 0.1/day - 0
Cessna C402 0.1/day - 0
Embraer Phenom 300 0.0/day - -0.06666666666666667